Time;durP1;ratioP1;P1;durP2;ratioP2;P2;SDS_P1;SDS_P2;PMS_P1;PMS_P2;Temp;Humidity;BMP_temperature;BMP_pressure;BME280_temperature;BME280_humidity;BME280_pressure;Samples;Min_cycle;Max_cycle;Signal;HPM_P1;HPM_P2
2022/01/09 00:00:26;;;;;;;7.87;6.93;;;1.80;99.90;;;;;;637464;224;26546;-79
2022/01/09 00:02:54;;;;;;;10.90;7.53;;;1.80;99.90;;;;;;638257;222;26560;-78
2022/01/09 00:05:22;;;;;;;9.00;7.70;;;1.70;99.90;;;;;;645011;222;26618;-79
2022/01/09 00:07:49;;;;;;;8.87;7.20;;;1.70;99.90;;;;;;639477;222;26564;-78
2022/01/09 00:10:16;;;;;;;8.80;6.80;;;1.80;99.90;;;;;;638695;223;26578;-79
2022/01/09 00:12:43;;;;;;;8.50;6.63;;;1.80;99.90;;;;;;638404;224;26826;-79
2022/01/09 00:15:10;;;;;;;8.17;6.70;;;1.80;99.90;;;;;;640890;221;26559;-78
2022/01/09 00:17:38;;;;;;;8.13;6.87;;;1.80;99.90;;;;;;647133;221;26556;-79
2022/01/09 00:20:06;;;;;;;11.33;6.43;;;1.80;99.90;;;;;;646934;222;26599;-78
2022/01/09 00:22:41;;;;;;;7.97;6.50;;;1.60;99.90;;;;;;647039;221;26594;-77
2022/01/09 00:25:03;;;;;;;7.33;6.60;;;1.60;99.90;;;;;;646644;222;26793;-79
2022/01/09 00:27:30;;;;;;;7.00;6.30;;;1.50;99.90;;;;;;646991;222;26761;-79
2022/01/09 00:29:57;;;;;;;7.67;6.20;;;1.60;99.90;;;;;;646956;222;26615;-79
2022/01/09 00:32:24;;;;;;;6.53;5.83;;;1.70;99.90;;;;;;647113;222;26599;-78
2022/01/09 00:34:52;;;;;;;8.70;6.00;;;1.80;99.90;;;;;;647062;222;26581;-79
2022/01/09 00:37:20;;;;;;;7.30;6.53;;;1.70;99.90;;;;;;643970;222;26564;-79
2022/01/09 00:39:47;;;;;;;6.67;5.77;;;1.70;99.90;;;;;;647033;222;26615;-80
2022/01/09 00:42:14;;;;;;;6.10;5.60;;;1.70;99.90;;;;;;640151;222;27220;-78
2022/01/09 00:44:42;;;;;;;8.67;6.57;;;1.70;99.90;;;;;;637047;219;26614;-79
2022/01/09 00:47:10;;;;;;;7.07;6.37;;;1.70;99.90;;;;;;637004;224;26586;-79
2022/01/09 00:49:38;;;;;;;8.13;6.27;;;1.70;99.90;;;;;;636897;224;26568;-79
2022/01/09 00:52:05;;;;;;;12.83;6.57;;;1.70;99.90;;;;;;636909;222;26605;-80
2022/01/09 00:54:32;;;;;;;7.90;6.77;;;1.60;99.90;;;;;;638795;220;26551;-79
2022/01/09 00:57:00;;;;;;;8.53;5.70;;;1.60;99.90;;;;;;640077;222;26507;-81
2022/01/09 00:59:27;;;;;;;7.27;5.97;;;1.60;99.90;;;;;;641061;221;26843;-79
2022/01/09 01:01:55;;;;;;;7.63;6.10;;;1.60;99.90;;;;;;639564;224;26527;-79
2022/01/09 01:04:22;;;;;;;6.93;5.73;;;1.50;99.90;;;;;;641328;222;26754;-79
2022/01/09 01:06:51;;;;;;;6.93;5.97;;;1.60;99.90;;;;;;643212;222;26527;-79
2022/01/09 01:09:20;;;;;;;10.00;6.87;;;1.50;99.90;;;;;;646492;221;26477;-79
2022/01/09 01:11:45;;;;;;;8.57;6.20;;;1.50;99.90;;;;;;647629;222;26534;-80
2022/01/09 01:14:12;;;;;;;6.97;6.27;;;1.40;99.90;;;;;;638897;222;26812;-79
2022/01/09 01:16:40;;;;;;;7.07;6.40;;;1.40;99.90;;;;;;641917;222;26574;-79
2022/01/09 01:19:07;;;;;;;8.93;6.50;;;1.40;99.90;;;;;;644812;222;26796;-79
2022/01/09 01:21:35;;;;;;;8.43;7.10;;;1.40;99.90;;;;;;643874;222;26577;-78
2022/01/09 01:24:03;;;;;;;8.43;6.57;;;1.40;99.90;;;;;;642120;222;26609;-81
2022/01/09 01:26:30;;;;;;;12.67;6.90;;;1.40;99.90;;;;;;646044;221;26550;-79
2022/01/09 01:28:57;;;;;;;7.27;6.50;;;1.40;99.90;;;;;;638489;221;26558;-78
2022/01/09 01:31:24;;;;;;;10.47;6.73;;;1.40;99.90;;;;;;646913;222;26879;-78
2022/01/09 01:33:51;;;;;;;8.87;6.87;;;1.40;99.90;;;;;;642768;222;26546;-78
2022/01/09 01:36:19;;;;;;;7.47;6.50;;;1.30;99.90;;;;;;647029;217;26551;-78
2022/01/09 01:38:47;;;;;;;7.50;6.70;;;1.30;99.90;;;;;;647271;222;26550;-79
2022/01/09 01:41:14;;;;;;;8.17;7.00;;;1.30;99.90;;;;;;647974;221;26526;-79
2022/01/09 01:43:41;;;;;;;8.10;6.40;;;1.40;99.90;;;;;;647322;221;26573;-78
2022/01/09 01:46:08;;;;;;;8.40;6.77;;;1.40;99.90;;;;;;640245;224;26750;-80
2022/01/09 01:48:35;;;;;;;11.20;7.03;;;1.40;99.90;;;;;;637884;224;26560;-79
2022/01/09 01:51:02;;;;;;;8.70;7.30;;;1.40;99.90;;;;;;638983;224;26575;-78
2022/01/09 01:53:30;;;;;;;9.77;6.53;;;1.40;99.90;;;;;;638067;222;26584;-79
2022/01/09 01:56:00;;;;;;;7.73;6.80;;;1.40;99.90;;;;;;647792;221;26554;-79
2022/01/09 01:58:26;;;;;;;8.57;6.13;;;1.40;99.90;;;;;;636797;222;26588;-79
2022/01/09 02:00:52;;;;;;;8.37;6.63;;;1.50;99.90;;;;;;641108;222;26884;-79
2022/01/09 02:03:19;;;;;;;9.60;7.03;;;1.60;99.90;;;;;;645734;221;26571;-78
2022/01/09 02:05:46;;;;;;;8.40;6.57;;;1.50;99.90;;;;;;638307;223;26589;-78
2022/01/09 02:08:14;;;;;;;7.80;6.20;;;1.50;99.90;;;;;;647356;221;26570;-79
2022/01/09 02:10:42;;;;;;;9.83;6.57;;;1.50;99.90;;;;;;650131;221;26805;-79
2022/01/09 02:13:09;;;;;;;9.33;6.70;;;1.60;99.90;;;;;;640542;224;26552;-79
2022/01/09 02:15:36;;;;;;;7.03;6.30;;;1.40;99.90;;;;;;645122;222;26761;-79
2022/01/09 02:18:07;;;;;;;9.57;6.60;;;1.30;99.90;;;;;;638266;223;26543;-80
2022/01/09 02:20:34;;;;;;;7.80;7.00;;;1.20;99.90;;;;;;639102;224;26499;-79
2022/01/09 02:23:01;;;;;;;6.77;6.07;;;1.30;99.90;;;;;;641524;223;26795;-80
2022/01/09 02:25:28;;;;;;;8.83;7.03;;;1.40;99.90;;;;;;646969;221;26535;-79
2022/01/09 02:27:55;;;;;;;8.77;6.70;;;1.30;99.90;;;;;;643455;221;26781;-85
2022/01/09 02:30:23;;;;;;;8.57;6.87;;;1.40;99.90;;;;;;641187;223;26585;-80
2022/01/09 02:32:51;;;;;;;7.83;6.83;;;1.40;99.90;;;;;;638704;219;26565;-79
2022/01/09 02:35:19;;;;;;;7.70;6.90;;;1.40;99.90;;;;;;639532;222;26789;-80
2022/01/09 02:37:46;;;;;;;10.00;6.90;;;1.40;99.90;;;;;;646738;222;26822;-79
2022/01/09 02:40:13;;;;;;;10.57;7.80;;;1.50;99.90;;;;;;637565;222;26817;-79
2022/01/09 02:42:41;;;;;;;9.97;6.97;;;1.60;99.90;;;;;;644056;222;26601;-78
2022/01/09 02:45:09;;;;;;;9.03;7.00;;;1.70;99.90;;;;;;640366;224;26515;-78
2022/01/09 02:47:38;;;;;;;10.10;6.80;;;1.70;99.90;;;;;;644566;222;26574;-78
2022/01/09 02:50:28;;;;;;;8.33;6.60;;;1.70;99.90;;;;;;638556;222;26836;-78
2022/01/09 02:52:50;;;;;;;7.67;6.87;;;1.60;99.90;;;;;;644511;222;26512;-80
2022/01/09 02:55:16;;;;;;;9.80;8.27;;;1.60;99.90;;;;;;639114;224;26580;-78
2022/01/09 02:57:45;;;;;;;8.10;7.00;;;1.60;99.90;;;;;;639179;224;26592;-81
2022/01/09 03:00:15;;;;;;;9.77;7.20;;;1.60;99.90;;;;;;637078;222;26623;-79
2022/01/09 03:02:42;;;;;;;10.80;6.83;;;1.60;99.90;;;;;;639731;222;26572;-77
2022/01/09 03:05:09;;;;;;;8.27;7.27;;;1.60;99.90;;;;;;638717;221;26802;-79
2022/01/09 03:07:37;;;;;;;9.00;7.53;;;1.70;99.90;;;;;;640806;222;26588;-78
2022/01/09 03:10:06;;;;;;;12.20;7.43;;;1.50;99.90;;;;;;637054;224;26611;-80
2022/01/09 03:12:33;;;;;;;7.67;6.63;;;1.50;99.90;;;;;;640332;222;26754;-79
2022/01/09 03:15:00;;;;;;;10.33;6.90;;;1.40;99.90;;;;;;647562;221;26796;-78
2022/01/09 03:17:27;;;;;;;9.13;6.77;;;1.50;99.90;;;;;;642071;220;26566;-80
2022/01/09 03:19:55;;;;;;;11.47;7.50;;;1.40;99.90;;;;;;640938;224;26879;-79
2022/01/09 03:22:23;;;;;;;9.47;6.80;;;1.50;99.90;;;;;;647927;221;26598;-79
2022/01/09 03:24:50;;;;;;;11.97;7.30;;;1.50;99.90;;;;;;647690;221;26551;-78
2022/01/09 03:27:18;;;;;;;7.90;6.67;;;1.60;99.90;;;;;;649028;221;27110;-78
2022/01/09 03:29:45;;;;;;;9.53;7.63;;;1.60;99.90;;;;;;646989;221;26583;-79
2022/01/09 03:32:12;;;;;;;9.30;6.60;;;1.70;99.90;;;;;;637820;224;26824;-78
2022/01/09 03:34:39;;;;;;;9.87;6.87;;;1.60;99.90;;;;;;637759;221;26560;-79
2022/01/09 03:37:06;;;;;;;8.37;6.50;;;1.50;99.90;;;;;;645442;222;26816;-78
2022/01/09 03:39:34;;;;;;;8.37;7.00;;;1.50;99.90;;;;;;639350;224;26569;-79
2022/01/09 03:42:02;;;;;;;8.03;7.23;;;1.50;99.90;;;;;;642572;222;26596;-79
2022/01/09 03:44:30;;;;;;;8.37;7.23;;;1.40;99.90;;;;;;647340;222;26588;-79
2022/01/09 03:46:57;;;;;;;9.23;6.57;;;1.60;99.90;;;;;;647606;221;26581;-79
2022/01/09 03:49:25;;;;;;;9.73;6.50;;;1.70;99.90;;;;;;644665;221;26589;-78
2022/01/09 03:51:54;;;;;;;9.83;6.70;;;1.70;99.90;;;;;;639376;222;26612;-78
2022/01/09 03:54:21;;;;;;;8.77;6.87;;;1.70;99.90;;;;;;639099;222;26823;-79
2022/01/09 03:56:47;;;;;;;9.47;6.93;;;1.70;99.90;;;;;;637430;224;26769;-79
2022/01/09 03:59:14;;;;;;;9.57;7.07;;;1.70;99.90;;;;;;640685;224;26763;-79
2022/01/09 04:01:42;;;;;;;7.70;6.50;;;1.70;99.90;;;;;;641176;221;26586;-79
2022/01/09 04:04:10;;;;;;;7.00;6.30;;;1.70;99.90;;;;;;644279;221;26518;-79
2022/01/09 04:06:44;;;;;;;10.60;7.10;;;1.70;99.90;;;;;;640386;224;26509;-79
2022/01/09 04:09:08;;;;;;;9.10;6.07;;;1.60;99.90;;;;;;639727;224;26591;-79
2022/01/09 04:11:37;;;;;;;8.90;6.60;;;1.50;99.90;;;;;;644589;221;26613;-79
2022/01/09 04:14:00;;;;;;;7.87;6.60;;;1.50;99.90;;;;;;645932;221;26528;-79
2022/01/09 04:16:27;;;;;;;6.57;5.97;;;1.40;99.90;;;;;;636979;226;26582;-80
2022/01/09 04:18:55;;;;;;;6.70;5.73;;;1.50;99.90;;;;;;638800;222;26897;-79
2022/01/09 04:21:22;;;;;;;8.53;6.43;;;1.50;99.90;;;;;;640300;222;26607;-79
2022/01/09 04:23:49;;;;;;;7.97;5.60;;;1.50;99.90;;;;;;647079;222;26583;-79
2022/01/09 04:26:18;;;;;;;8.47;6.30;;;1.40;99.90;;;;;;646966;222;26591;-79
2022/01/09 04:28:44;;;;;;;6.67;5.97;;;1.40;99.90;;;;;;648825;219;26794;-79
2022/01/09 04:31:11;;;;;;;7.17;6.07;;;1.30;99.90;;;;;;640524;221;26531;-83
2022/01/09 04:33:40;;;;;;;8.47;6.33;;;1.40;99.90;;;;;;641121;222;26540;-78
2022/01/09 04:36:06;;;;;;;8.47;6.17;;;1.40;99.90;;;;;;648653;221;26581;-78
2022/01/09 04:38:33;;;;;;;6.80;6.07;;;1.40;99.90;;;;;;649420;221;26504;-78
2022/01/09 04:41:00;;;;;;;9.80;6.03;;;1.50;99.90;;;;;;642825;222;26780;-78
2022/01/09 04:43:28;;;;;;;9.07;6.40;;;1.20;99.90;;;;;;642665;222;26644;-78
2022/01/09 04:45:57;;;;;;;6.63;5.63;;;1.40;99.90;;;;;;638154;224;26512;-78
2022/01/09 04:48:24;;;;;;;7.10;6.40;;;1.30;99.90;;;;;;640675;224;26581;-78
2022/01/09 04:50:53;;;;;;;10.40;6.10;;;1.50;99.90;;;;;;638563;224;26870;-78
2022/01/09 04:53:19;;;;;;;6.03;5.40;;;1.50;99.90;;;;;;639740;224;26614;-78
2022/01/09 04:55:50;;;;;;;7.63;5.30;;;1.50;99.90;;;;;;638597;221;26576;-78
2022/01/09 04:58:15;;;;;;;6.77;5.50;;;1.50;99.90;;;;;;640161;221;26610;-78
2022/01/09 05:00:42;;;;;;;5.97;5.23;;;1.50;99.90;;;;;;639745;222;26583;-79
2022/01/09 05:03:09;;;;;;;6.77;5.20;;;1.40;99.90;;;;;;638190;222;26884;-78
2022/01/09 05:05:36;;;;;;;6.03;5.27;;;1.40;99.90;;;;;;638877;224;26552;-78
2022/01/09 05:08:03;;;;;;;5.60;5.10;;;1.50;99.90;;;;;;640332;224;26551;-77
2022/01/09 05:10:31;;;;;;;7.67;5.10;;;1.50;99.90;;;;;;637332;224;26592;-77
2022/01/09 05:12:58;;;;;;;6.27;5.30;;;1.50;99.90;;;;;;644978;222;26620;-78
2022/01/09 05:15:25;;;;;;;6.13;5.53;;;1.60;99.90;;;;;;638597;221;26579;-77
2022/01/09 05:17:57;;;;;;;5.90;5.10;;;1.50;99.90;;;;;;640315;222;26812;-77
2022/01/09 05:20:19;;;;;;;5.40;4.87;;;1.40;99.90;;;;;;638962;221;26592;-78
2022/01/09 05:22:48;;;;;;;5.53;5.03;;;1.40;99.90;;;;;;650560;221;27099;-78
2022/01/09 05:25:15;;;;;;;8.97;5.33;;;1.40;99.90;;;;;;644628;221;26575;-78
2022/01/09 05:27:43;;;;;;;6.37;4.83;;;1.30;99.90;;;;;;644544;221;26513;-78
2022/01/09 05:30:10;;;;;;;7.93;4.90;;;1.40;99.90;;;;;;644085;221;26527;-78
2022/01/09 05:32:37;;;;;;;6.30;5.53;;;1.40;99.90;;;;;;648374;221;27055;-78
2022/01/09 05:35:05;;;;;;;4.97;4.47;;;1.50;99.90;;;;;;641746;222;26799;-78
2022/01/09 05:37:32;;;;;;;8.07;5.37;;;1.40;99.90;;;;;;642781;222;26608;-78
2022/01/09 05:40:00;;;;;;;8.10;5.30;;;1.70;99.90;;;;;;641205;222;26677;-78
2022/01/09 05:42:27;;;;;;;7.77;6.37;;;1.60;99.90;;;;;;638684;223;26818;-78
2022/01/09 05:44:54;;;;;;;6.87;5.10;;;1.80;99.90;;;;;;637911;225;26596;-78
2022/01/09 05:47:22;;;;;;;8.17;5.70;;;1.80;99.90;;;;;;639610;222;26800;-78
2022/01/09 05:49:50;;;;;;;5.70;5.00;;;1.70;99.90;;;;;;645708;222;26582;-77
2022/01/09 05:52:18;;;;;;;6.10;5.60;;;1.70;99.90;;;;;;644888;222;26510;-79
2022/01/09 05:54:45;;;;;;;7.60;5.10;;;1.70;99.90;;;;;;647674;222;26524;-77
2022/01/09 05:57:12;;;;;;;6.43;5.50;;;1.60;99.90;;;;;;644555;221;26743;-79
2022/01/09 05:59:40;;;;;;;5.77;4.93;;;1.60;99.90;;;;;;646172;222;26861;-78
2022/01/09 06:02:07;;;;;;;6.37;5.30;;;1.60;99.90;;;;;;646820;221;27261;-77
2022/01/09 06:04:34;;;;;;;6.13;5.53;;;1.60;99.90;;;;;;637268;224;26573;-78
2022/01/09 06:07:01;;;;;;;8.53;5.40;;;1.60;99.90;;;;;;643661;222;26587;-78
2022/01/09 06:09:29;;;;;;;7.17;5.73;;;1.70;99.90;;;;;;638866;224;26590;-79
2022/01/09 06:11:56;;;;;;;7.23;5.23;;;1.70;99.90;;;;;;640468;224;26940;-79
2022/01/09 06:14:23;;;;;;;6.43;5.77;;;1.80;99.90;;;;;;637829;222;26577;-78
2022/01/09 06:16:50;;;;;;;6.43;5.33;;;1.80;99.90;;;;;;638750;222;26553;-78
2022/01/09 06:19:19;;;;;;;7.23;5.53;;;2.00;99.90;;;;;;637760;224;26581;-78
2022/01/09 06:21:47;;;;;;;6.57;5.37;;;2.10;99.90;;;;;;640713;219;26599;-78
2022/01/09 06:24:15;;;;;;;7.33;5.67;;;2.10;99.90;;;;;;639251;224;26591;-77
2022/01/09 06:26:42;;;;;;;5.83;5.23;;;2.10;99.90;;;;;;626037;226;26564;-78
2022/01/09 06:29:09;;;;;;;7.30;5.73;;;2.30;99.90;;;;;;636948;225;26783;-78
2022/01/09 06:31:36;;;;;;;6.07;5.20;;;2.40;99.90;;;;;;639680;222;26910;-78
2022/01/09 06:34:04;;;;;;;6.57;5.53;;;2.40;99.90;;;;;;637371;221;26566;-78
2022/01/09 06:36:32;;;;;;;6.13;4.97;;;2.50;99.90;;;;;;638210;224;26581;-77
2022/01/09 06:38:59;;;;;;;6.00;5.17;;;2.50;99.90;;;;;;638674;224;26571;-77
2022/01/09 06:41:27;;;;;;;5.83;5.27;;;2.60;99.90;;;;;;632207;221;26795;-77
2022/01/09 06:43:54;;;;;;;7.37;5.50;;;2.60;99.90;;;;;;650007;221;26519;-79
2022/01/09 06:46:22;;;;;;;5.30;4.90;;;2.80;99.90;;;;;;642332;221;26789;-77
2022/01/09 06:48:49;;;;;;;8.70;5.13;;;2.70;99.90;;;;;;636986;226;26634;-77
2022/01/09 06:51:17;;;;;;;6.83;4.93;;;2.80;99.90;;;;;;638047;221;26700;-78
2022/01/09 06:53:44;;;;;;;5.37;4.93;;;2.80;99.90;;;;;;650408;220;26835;-77
2022/01/09 06:56:11;;;;;;;7.03;4.93;;;2.90;99.90;;;;;;643058;222;26605;-77
2022/01/09 06:58:38;;;;;;;5.90;5.40;;;3.00;99.90;;;;;;648025;221;27120;-78
2022/01/09 07:01:07;;;;;;;5.77;5.17;;;3.00;99.90;;;;;;639084;221;26582;-77
2022/01/09 07:03:34;;;;;;;5.80;4.90;;;3.10;99.90;;;;;;643519;222;26525;-77
2022/01/09 07:06:02;;;;;;;6.37;5.43;;;3.10;99.90;;;;;;641238;222;26848;-77
2022/01/09 07:08:33;;;;;;;6.90;5.20;;;3.10;99.90;;;;;;638648;222;26593;-79
2022/01/09 07:10:56;;;;;;;5.63;5.13;;;3.10;99.90;;;;;;638136;221;26811;-78
2022/01/09 07:13:24;;;;;;;5.57;4.83;;;3.00;99.90;;;;;;641341;223;26526;-77
2022/01/09 07:15:52;;;;;;;6.37;5.43;;;3.00;99.90;;;;;;642427;222;26480;-78
2022/01/09 07:18:19;;;;;;;5.90;5.20;;;3.00;99.90;;;;;;644391;221;26770;-79
2022/01/09 07:20:46;;;;;;;7.00;5.47;;;2.90;99.90;;;;;;646535;221;26788;-78
2022/01/09 07:23:13;;;;;;;8.33;5.50;;;2.60;99.90;;;;;;639725;221;27351;-78
2022/01/09 07:25:41;;;;;;;5.93;5.33;;;2.60;99.90;;;;;;647849;221;26569;-77
2022/01/09 07:28:09;;;;;;;5.77;5.17;;;2.60;99.90;;;;;;636823;224;26575;-78
2022/01/09 07:30:37;;;;;;;7.93;5.67;;;2.50;99.90;;;;;;639410;222;26640;-78
2022/01/09 07:33:04;;;;;;;7.60;5.73;;;2.60;99.90;;;;;;639484;224;26556;-77
2022/01/09 07:35:31;;;;;;;7.67;6.57;;;2.80;99.90;;;;;;638653;224;26817;-78
2022/01/09 07:37:59;;;;;;;8.83;7.37;;;2.80;99.90;;;;;;637091;224;26631;-78
2022/01/09 07:40:28;;;;;;;7.07;6.20;;;2.80;99.90;;;;;;639307;221;26611;-78
2022/01/09 07:42:54;;;;;;;8.03;5.83;;;2.80;99.90;;;;;;640403;224;26527;-78
2022/01/09 07:45:24;;;;;;;7.87;6.10;;;2.80;99.90;;;;;;640079;222;26765;-78
2022/01/09 07:47:48;;;;;;;8.67;7.63;;;2.90;99.90;;;;;;646561;221;26879;-78
2022/01/09 07:50:16;;;;;;;7.80;6.43;;;3.00;99.90;;;;;;640361;222;26604;-77
2022/01/09 07:52:43;;;;;;;9.80;6.97;;;3.10;99.90;;;;;;644930;221;26595;-78
2022/01/09 07:55:10;;;;;;;7.27;6.33;;;3.20;99.90;;;;;;645143;222;26615;-77
2022/01/09 07:57:37;;;;;;;8.73;6.83;;;3.30;99.90;;;;;;645100;221;26576;-78
2022/01/09 08:00:06;;;;;;;8.47;6.57;;;3.20;99.90;;;;;;638439;224;26585;-77
2022/01/09 08:02:33;;;;;;;7.27;6.53;;;3.10;99.90;;;;;;639459;221;26598;-78
2022/01/09 08:05:00;;;;;;;8.63;6.30;;;3.20;99.90;;;;;;641267;220;26626;-77
2022/01/09 08:07:27;;;;;;;7.07;6.30;;;3.20;99.90;;;;;;641123;222;26567;-78
2022/01/09 08:09:55;;;;;;;6.63;5.87;;;3.10;99.90;;;;;;641619;221;27454;-78
2022/01/09 08:12:22;;;;;;;6.80;5.67;;;3.20;99.90;;;;;;638869;222;26600;-77
2022/01/09 08:14:49;;;;;;;7.13;6.40;;;3.40;99.90;;;;;;649429;221;26550;-78
2022/01/09 08:17:17;;;;;;;7.80;5.87;;;3.30;99.90;;;;;;640400;222;26568;-78
2022/01/09 08:19:44;;;;;;;7.53;5.67;;;3.30;99.90;;;;;;637795;222;26796;-78
2022/01/09 08:22:11;;;;;;;7.63;6.53;;;3.30;99.90;;;;;;645026;222;26587;-78
2022/01/09 08:24:39;;;;;;;7.50;6.80;;;3.40;99.90;;;;;;637082;224;26806;-79
2022/01/09 08:27:06;;;;;;;11.17;6.60;;;3.60;99.90;;;;;;638370;224;26581;-77
2022/01/09 08:29:34;;;;;;;7.03;5.97;;;3.70;99.90;;;;;;638249;224;26574;-77
2022/01/09 08:32:02;;;;;;;7.03;6.33;;;3.70;99.90;;;;;;638585;222;26825;-77
2022/01/09 08:34:29;;;;;;;8.20;6.83;;;3.80;99.90;;;;;;639481;222;26572;-78
2022/01/09 08:36:56;;;;;;;9.07;6.13;;;3.80;99.90;;;;;;640153;224;27286;-77
2022/01/09 08:39:23;;;;;;;7.23;6.23;;;3.90;99.90;;;;;;640331;222;26564;-76
2022/01/09 08:41:50;;;;;;;7.53;5.93;;;4.00;99.90;;;;;;644603;221;26582;-76
2022/01/09 08:44:18;;;;;;;7.83;5.73;;;4.20;99.90;;;;;;639577;222;26568;-76
2022/01/09 08:46:46;;;;;;;8.00;6.23;;;4.20;99.90;;;;;;640634;222;26909;-76
2022/01/09 08:49:13;;;;;;;9.70;5.97;;;4.30;99.90;;;;;;638348;222;26569;-76
2022/01/09 08:51:40;;;;;;;5.93;5.33;;;4.30;99.90;;;;;;644306;221;26868;-76
2022/01/09 08:54:08;;;;;;;6.87;5.60;;;4.50;99.90;;;;;;638507;222;26618;-76
2022/01/09 08:56:38;;;;;;;7.67;6.03;;;4.30;99.90;;;;;;640124;224;26533;-77
2022/01/09 08:59:03;;;;;;;6.87;6.20;;;4.30;99.90;;;;;;642602;222;26569;-79
2022/01/09 09:01:30;;;;;;;7.43;6.23;;;4.30;99.90;;;;;;642038;222;26584;-78
2022/01/09 09:03:57;;;;;;;9.43;5.30;;;4.50;99.90;;;;;;637369;224;26906;-78
2022/01/09 09:06:25;;;;;;;6.83;4.97;;;4.50;99.90;;;;;;640291;222;26572;-79
2022/01/09 09:08:53;;;;;;;6.03;5.30;;;5.00;99.90;;;;;;642744;222;26559;-79
2022/01/09 09:11:20;;;;;;;6.17;5.30;;;4.50;99.90;;;;;;639028;219;26575;-78
2022/01/09 09:13:47;;;;;;;6.23;5.50;;;4.80;99.90;;;;;;640220;224;26858;-77
2022/01/09 09:16:15;;;;;;;7.47;5.33;;;4.90;99.90;;;;;;640031;223;26845;-77
2022/01/09 09:18:43;;;;;;;6.67;5.63;;;4.80;99.90;;;;;;646420;222;27370;-78
2022/01/09 09:21:10;;;;;;;9.23;6.27;;;4.90;99.90;;;;;;647982;221;26599;-79
2022/01/09 09:23:38;;;;;;;6.80;5.43;;;5.10;99.90;;;;;;647643;221;26615;-77
2022/01/09 09:26:05;;;;;;;7.53;5.33;;;5.00;99.90;;;;;;644684;222;26503;-78
2022/01/09 09:28:32;;;;;;;6.03;5.40;;;4.90;99.90;;;;;;640153;221;26503;-78
2022/01/09 09:31:00;;;;;;;6.47;5.47;;;5.10;99.90;;;;;;638707;224;26810;-78
2022/01/09 09:33:27;;;;;;;7.50;5.73;;;5.30;99.90;;;;;;637611;224;26563;-78
2022/01/09 09:35:58;;;;;;;5.67;5.17;;;5.40;99.90;;;;;;642727;222;26590;-77
2022/01/09 09:38:23;;;;;;;7.30;5.77;;;5.40;99.90;;;;;;647125;222;26584;-77
2022/01/09 09:40:50;;;;;;;6.27;5.33;;;5.60;99.90;;;;;;647361;222;26579;-77
2022/01/09 09:43:17;;;;;;;6.00;5.30;;;5.60;99.90;;;;;;640630;221;26798;-77
2022/01/09 09:45:44;;;;;;;6.60;5.37;;;5.80;99.90;;;;;;637229;224;26617;-77
2022/01/09 09:48:11;;;;;;;6.27;5.03;;;5.90;99.50;;;;;;644028;221;26549;-77
2022/01/09 09:50:39;;;;;;;5.87;5.27;;;6.00;99.50;;;;;;650056;221;26590;-77
2022/01/09 09:53:07;;;;;;;5.40;4.90;;;6.00;99.50;;;;;;638104;221;26554;-78
2022/01/09 09:55:34;;;;;;;5.80;5.03;;;5.90;99.20;;;;;;636946;224;26581;-79
2022/01/09 09:58:01;;;;;;;7.17;5.00;;;5.90;99.20;;;;;;644601;221;27213;-80
2022/01/09 10:00:30;;;;;;;6.30;5.00;;;5.90;99.40;;;;;;643443;221;26591;-79
2022/01/09 10:02:58;;;;;;;6.40;4.87;;;5.80;99.30;;;;;;645037;222;26784;-79
2022/01/09 10:05:27;;;;;;;6.23;5.63;;;5.70;99.50;;;;;;648097;221;26549;-78
2022/01/09 10:07:54;;;;;;;6.37;5.03;;;5.70;99.70;;;;;;642429;221;26580;-78
2022/01/09 10:10:21;;;;;;;5.33;4.83;;;5.60;99.40;;;;;;637635;224;26820;-79
2022/01/09 10:12:48;;;;;;;6.80;5.43;;;5.60;99.90;;;;;;639769;224;26580;-79
2022/01/09 10:15:17;;;;;;;7.20;5.50;;;5.60;99.70;;;;;;643963;222;27257;-79
2022/01/09 10:17:44;;;;;;;5.37;4.87;;;5.80;99.80;;;;;;637156;222;26593;-79
2022/01/09 10:20:12;;;;;;;6.67;4.60;;;5.80;99.70;;;;;;637201;221;26830;-78
2022/01/09 10:22:43;;;;;;;6.30;4.67;;;6.20;99.20;;;;;;640410;224;26518;-79
2022/01/09 10:25:18;;;;;;;5.93;4.93;;;6.40;99.30;;;;;;636905;225;26617;-79
2022/01/09 10:27:45;;;;;;;5.93;4.80;;;6.30;99.20;;;;;;638850;222;26583;-79
2022/01/09 10:30:13;;;;;;;6.20;4.90;;;6.30;98.70;;;;;;638655;221;26555;-79
2022/01/09 10:32:40;;;;;;;5.63;4.63;;;6.30;98.70;;;;;;641711;222;26617;-79
2022/01/09 10:35:16;;;;;;;9.30;6.30;;;6.50;99.00;;;;;;637835;223;26583;-79
2022/01/09 10:37:45;;;;;;;7.80;5.30;;;6.80;98.60;;;;;;637276;225;26785;-79
2022/01/09 10:40:20;;;;;;;4.60;4.20;;;6.80;98.50;;;;;;637674;224;26892;-79
2022/01/09 10:42:58;;;;;;;7.73;5.40;;;6.80;98.30;;;;;;651363;221;27320;-80
2022/01/09 10:45:25;;;;;;;6.40;4.97;;;6.80;98.30;;;;;;644809;221;27040;-93
2022/01/09 10:47:55;;;;;;;7.80;5.60;;;6.50;98.40;;;;;;638080;224;26780;-91
2022/01/09 10:50:23;;;;;;;8.20;5.33;;;6.50;98.40;;;;;;637074;225;26601;-92
2022/01/09 10:52:50;;;;;;;6.10;4.87;;;6.50;98.40;;;;;;639302;222;26570;-91
2022/01/09 10:55:19;;;;;;;6.97;5.30;;;6.50;98.40;;;;;;647420;217;26550;-78
2022/01/09 10:57:47;;;;;;;6.53;5.23;;;6.60;98.10;;;;;;642972;221;26590;-80
2022/01/09 11:00:14;;;;;;;5.83;4.97;;;6.60;98.10;;;;;;640531;223;26614;-81
2022/01/09 11:02:44;;;;;;;5.87;4.70;;;6.50;98.50;;;;;;625987;226;26528;-82
2022/01/09 11:05:10;;;;;;;5.63;4.90;;;6.70;98.20;;;;;;644785;222;26556;-80
2022/01/09 11:07:37;;;;;;;6.57;5.53;;;6.70;98.20;;;;;;647017;222;26568;-80
2022/01/09 11:10:07;;;;;;;5.73;5.13;;;6.80;98.20;;;;;;647298;221;26610;-81
2022/01/09 11:12:42;;;;;;;5.83;5.33;;;7.00;98.10;;;;;;650362;216;27009;-81
2022/01/09 11:15:00;;;;;;;7.40;5.53;;;7.00;97.70;;;;;;641774;221;26570;-80
2022/01/09 11:17:27;;;;;;;5.67;4.77;;;7.00;97.60;;;;;;639773;222;26588;-81
2022/01/09 11:19:55;;;;;;;5.10;4.70;;;7.20;97.60;;;;;;647022;222;26582;-80
2022/01/09 11:22:23;;;;;;;5.87;5.27;;;7.20;97.60;;;;;;647074;222;26571;-81
2022/01/09 11:25:12;;;;;;;5.93;4.53;;;7.30;97.40;;;;;;647026;222;26800;-82
2022/01/09 11:27:45;;;;;;;5.90;5.30;;;7.20;97.50;;;;;;636989;222;26584;-81
2022/01/09 11:30:15;;;;;;;5.93;5.33;;;7.30;97.60;;;;;;637436;224;26910;-82
2022/01/09 11:32:56;;;;;;;5.50;5.00;;;7.40;97.40;;;;;;645384;222;26807;-81
2022/01/09 11:35:35;;;;;;;6.60;5.10;;;7.40;97.50;;;;;;646703;222;27340;-83
2022/01/09 11:38:08;;;;;;;6.13;5.27;;;7.40;97.30;;;;;;647731;220;26584;-82
2022/01/09 11:40:37;;;;;;;8.53;5.73;;;7.40;97.40;;;;;;648501;221;26603;-80
2022/01/09 11:43:07;;;;;;;5.90;5.13;;;7.30;97.50;;;;;;638689;221;26852;-81
2022/01/09 11:45:39;;;;;;;6.07;5.43;;;7.50;97.20;;;;;;637871;225;26578;-80
2022/01/09 11:48:06;;;;;;;5.27;4.77;;;7.50;97.20;;;;;;641935;222;26568;-81
2022/01/09 11:50:36;;;;;;;6.13;4.60;;;7.50;96.90;;;;;;637566;219;26808;-81
2022/01/09 11:53:02;;;;;;;5.47;4.77;;;7.60;97.20;;;;;;639374;224;26597;-80
2022/01/09 11:55:34;;;;;;;5.87;4.70;;;7.80;97.00;;;;;;638070;224;26773;-80
2022/01/09 11:58:06;;;;;;;6.17;4.70;;;8.00;96.70;;;;;;650863;220;26576;-80
2022/01/09 12:00:32;;;;;;;5.47;4.70;;;8.00;96.60;;;;;;649189;221;26569;-81
2022/01/09 12:02:59;;;;;;;5.87;4.90;;;8.00;96.40;;;;;;639747;221;26608;-80
2022/01/09 12:05:27;;;;;;;5.63;4.67;;;7.90;96.80;;;;;;637239;224;26868;-80
2022/01/09 12:08:01;;;;;;;6.17;4.83;;;8.00;96.70;;;;;;637811;221;27231;-79
2022/01/09 12:10:28;;;;;;;9.27;5.30;;;8.00;96.40;;;;;;647910;221;26592;-78
2022/01/09 12:12:55;;;;;;;6.33;4.93;;;8.10;96.50;;;;;;644153;222;27239;-78
2022/01/09 12:15:38;;;;;;;6.00;4.87;;;8.10;96.30;;;;;;639020;224;26576;-80
2022/01/09 12:18:07;;;;;;;5.70;5.07;;;7.90;96.50;;;;;;636722;224;27356;-80
2022/01/09 12:20:37;;;;;;;4.87;4.43;;;7.80;96.60;;;;;;640163;222;26589;-79
2022/01/09 12:23:02;;;;;;;4.63;4.17;;;8.00;96.50;;;;;;647137;222;26583;-79
2022/01/09 12:25:45;;;;;;;4.80;4.40;;;8.10;96.30;;;;;;640579;222;26559;-80
2022/01/09 12:28:14;;;;;;;7.47;4.43;;;8.10;96.30;;;;;;641175;222;26562;-79
2022/01/09 12:30:41;;;;;;;5.43;4.63;;;8.20;96.30;;;;;;642541;222;26708;-79
2022/01/09 12:33:40;;;;;;;6.30;4.53;;;8.30;96.30;;;;;;640441;222;26800;-79
2022/01/09 12:36:08;;;;;;;5.07;4.57;;;8.40;96.30;;;;;;644254;222;26833;-80
2022/01/09 12:38:36;;;;;;;5.30;4.80;;;8.20;96.30;;;;;;647008;222;26604;-80
2022/01/09 12:41:04;;;;;;;5.00;4.50;;;8.20;96.30;;;;;;646858;222;26550;-80
2022/01/09 12:43:31;;;;;;;5.10;4.67;;;8.20;96.30;;;;;;647033;222;26595;-79
2022/01/09 12:45:58;;;;;;;5.63;4.67;;;8.10;96.40;;;;;;646997;222;26789;-79
2022/01/09 12:48:27;;;;;;;5.10;4.60;;;8.10;96.70;;;;;;647007;222;26828;-79
2022/01/09 12:50:53;;;;;;;5.73;5.13;;;8.20;96.50;;;;;;648867;220;26609;-80
2022/01/09 12:53:20;;;;;;;5.63;5.00;;;8.20;96.30;;;;;;641506;221;26763;-81
2022/01/09 12:56:09;;;;;;;6.40;5.20;;;8.30;96.40;;;;;;639419;222;26595;-80
2022/01/09 12:58:40;;;;;;;5.00;4.53;;;8.20;96.40;;;;;;639324;221;26599;-82